createdAt,value
2022-08-26T00:02:11.431Z,20.82
2022-08-26T00:04:39.427Z,20.84
2022-08-26T00:07:07.400Z,20.91
2022-08-26T00:09:40.284Z,20.79
2022-08-26T00:12:12.091Z,20.70
2022-08-26T00:14:41.742Z,20.76
2022-08-26T00:17:10.073Z,20.75
2022-08-26T00:19:38.361Z,20.50
2022-08-26T00:22:06.802Z,20.61
2022-08-26T00:24:34.838Z,20.76
2022-08-26T00:27:04.171Z,20.75
2022-08-26T00:29:37.488Z,20.65
2022-08-26T00:32:06.598Z,20.62
2022-08-26T00:34:35.685Z,20.62
2022-08-26T00:37:03.591Z,20.51
2022-08-26T00:39:31.506Z,20.64
2022-08-26T00:42:00.498Z,20.67
2022-08-26T00:44:29.706Z,20.63
2022-08-26T00:47:03.746Z,20.71
2022-08-26T00:49:39.046Z,20.56
2022-08-26T00:52:12.054Z,20.75
2022-08-26T00:54:46.758Z,20.39
2022-08-26T00:57:17.736Z,20.20
2022-08-26T00:59:51.665Z,20.55
2022-08-26T01:02:20.929Z,20.28
2022-08-26T01:04:54.281Z,20.33
2022-08-26T01:07:27.567Z,20.30
2022-08-26T01:10:00.815Z,20.08
2022-08-26T01:12:32.827Z,20.14
2022-08-26T01:15:03.543Z,20.19
2022-08-26T01:17:33.894Z,20.22
2022-08-26T01:20:08.903Z,20.22
2022-08-26T01:22:50.504Z,20.40
2022-08-26T01:25:22.211Z,20.24
2022-08-26T01:27:52.149Z,20.37
2022-08-26T01:30:21.027Z,20.16
2022-08-26T01:32:51.600Z,20.32
2022-08-26T01:35:20.291Z,20.32
2022-08-26T01:37:53.291Z,19.96
2022-08-26T01:40:25.676Z,19.99
2022-08-26T01:42:54.925Z,20.08
2022-08-26T01:45:26.554Z,20.12
2022-08-26T01:47:57.386Z,20.09
2022-08-26T01:50:30.633Z,19.90
2022-08-26T01:53:03.374Z,20.03
2022-08-26T01:55:34.133Z,19.83
2022-08-26T01:58:05.381Z,19.82
2022-08-26T02:00:35.026Z,19.64
2022-08-26T02:03:18.060Z,19.53
2022-08-26T02:05:48.920Z,18.98
2022-08-26T02:08:24.864Z,19.09
2022-08-26T02:10:54.716Z,18.90
2022-08-26T02:13:26.431Z,18.93
2022-08-26T02:15:56.249Z,19.08
2022-08-26T02:18:26.551Z,19.27
2022-08-26T02:20:56.407Z,19.41
2022-08-26T02:23:26.242Z,19.39
2022-08-26T02:25:58.335Z,19.40
2022-08-26T02:28:29.505Z,19.24
2022-08-26T02:30:57.424Z,19.17
2022-08-26T02:33:25.624Z,19.13
2022-08-26T02:35:53.502Z,18.86
2022-08-26T02:38:21.477Z,18.37
2022-08-26T02:40:50.881Z,18.27
2022-08-26T02:43:19.054Z,18.26
2022-08-26T02:46:01.836Z,18.19
2022-08-26T02:48:30.182Z,18.41
2022-08-26T02:50:59.933Z,18.23
2022-08-26T02:53:27.900Z,18.03
2022-08-26T02:56:01.333Z,18.06
2022-08-26T02:58:29.285Z,18.10
2022-08-26T03:00:57.481Z,18.28
2022-08-26T03:03:26.590Z,18.42
2022-08-26T03:05:55.928Z,18.80
2022-08-26T03:08:23.933Z,18.78
2022-08-26T03:10:53.269Z,19.04
2022-08-26T03:13:22.566Z,19.08
2022-08-26T03:15:50.742Z,19.09
2022-08-26T03:18:18.648Z,18.98
2022-08-26T03:20:48.393Z,18.99
2022-08-26T03:23:16.685Z,19.04
2022-08-26T03:25:50.121Z,19.11
2022-08-26T03:28:18.203Z,19.08
2022-08-26T03:30:48.107Z,19.06
2022-08-26T03:33:17.128Z,18.82
2022-08-26T03:35:47.397Z,18.90
2022-08-26T03:38:15.747Z,18.58
2022-08-26T03:40:44.025Z,18.90
2022-08-26T03:43:13.002Z,18.85
2022-08-26T03:45:41.908Z,18.72
2022-08-26T03:48:12.449Z,18.67
2022-08-26T03:50:40.469Z,18.55
2022-08-26T03:53:12.850Z,18.36
2022-08-26T03:55:42.012Z,18.07
2022-08-26T03:58:11.639Z,18.21
2022-08-26T04:00:39.699Z,18.10
2022-08-26T04:03:09.892Z,18.47
2022-08-26T04:05:39.699Z,18.51
2022-08-26T04:08:08.876Z,18.52
2022-08-26T04:10:38.929Z,18.20
2022-08-26T04:13:07.172Z,18.35
2022-08-26T04:15:35.270Z,18.10
2022-08-26T04:18:03.162Z,18.18
2022-08-26T04:20:31.295Z,17.62
2022-08-26T04:23:00.526Z,17.73
2022-08-26T04:25:28.724Z,17.99
2022-08-26T04:27:56.828Z,17.99
2022-08-26T04:30:25.280Z,17.84
2022-08-26T04:32:53.641Z,18.16
2022-08-26T04:35:25.420Z,18.25
2022-08-26T04:37:54.133Z,18.45
2022-08-26T04:40:23.970Z,18.34
2022-08-26T04:42:53.753Z,18.31
2022-08-26T04:45:22.892Z,18.29
2022-08-26T04:47:54.631Z,18.26
2022-08-26T04:50:23.698Z,18.34
2022-08-26T04:52:52.951Z,18.28
2022-08-26T04:55:20.851Z,18.24
2022-08-26T04:57:55.112Z,18.32
2022-08-26T05:00:23.230Z,18.51
2022-08-26T05:02:51.532Z,18.38
2022-08-26T05:05:19.479Z,18.48
2022-08-26T05:07:48.775Z,18.26
2022-08-26T05:10:17.969Z,18.22
2022-08-26T05:12:46.583Z,17.98
2022-08-26T05:15:15.947Z,17.98
2022-08-26T05:17:44.223Z,18.30
2022-08-26T05:20:12.418Z,18.27
2022-08-26T05:22:40.385Z,18.28
2022-08-26T05:25:09.138Z,18.11
2022-08-26T05:27:37.010Z,18.52
2022-08-26T05:30:06.504Z,18.60
2022-08-26T05:32:35.745Z,18.21
2022-08-26T05:35:04.312Z,18.29
2022-08-26T05:37:38.339Z,18.35
2022-08-26T05:40:07.136Z,18.52
2022-08-26T05:42:36.364Z,18.54
2022-08-26T05:45:04.729Z,18.25
2022-08-26T05:47:32.692Z,18.39
2022-08-26T05:50:05.449Z,18.54
2022-08-26T05:52:33.626Z,18.54
2022-08-26T05:55:01.479Z,18.58
2022-08-26T05:57:30.015Z,18.78
2022-08-26T05:59:58.521Z,18.69
2022-08-26T06:02:26.351Z,18.91
2022-08-26T06:04:54.524Z,18.84
2022-08-26T06:07:44.072Z,18.91
2022-08-26T06:10:31.590Z,19.15
2022-08-26T06:13:09.101Z,19.22
2022-08-26T06:15:43.041Z,19.34
2022-08-26T06:18:14.106Z,19.53
2022-08-26T06:20:44.089Z,19.63
2022-08-26T06:23:45.866Z,19.86
2022-08-26T06:26:14.937Z,20.01
2022-08-26T06:28:45.391Z,20.06
2022-08-26T06:31:14.399Z,20.28
2022-08-26T06:33:42.432Z,20.70
2022-08-26T06:36:10.305Z,20.80
2022-08-26T06:38:39.808Z,20.84
2022-08-26T06:41:11.472Z,20.94
2022-08-26T06:43:39.485Z,21.28
2022-08-26T06:46:09.083Z,21.47
2022-08-26T06:48:37.482Z,21.69
2022-08-26T06:51:07.839Z,21.83
2022-08-26T06:53:36.760Z,21.84
2022-08-26T06:56:08.462Z,22.17
2022-08-26T06:58:38.835Z,22.37
2022-08-26T07:01:17.053Z,22.73
2022-08-26T07:03:46.770Z,22.92
2022-08-26T07:06:15.448Z,23.06
2022-08-26T07:08:44.501Z,23.15
2022-08-26T07:11:13.810Z,23.61
2022-08-26T07:13:41.653Z,23.58
2022-08-26T07:16:14.972Z,24.00
2022-08-26T07:18:44.779Z,24.03
2022-08-26T07:21:17.217Z,24.21
2022-08-26T07:23:46.270Z,24.52
2022-08-26T07:26:18.751Z,24.87
2022-08-26T07:28:48.438Z,25.32
2022-08-26T07:31:17.648Z,25.30
2022-08-26T07:33:46.021Z,25.52
2022-08-26T07:36:15.819Z,25.42
2022-08-26T07:38:45.254Z,25.84
2022-08-26T07:41:14.600Z,26.11
2022-08-26T07:43:44.045Z,26.55
2022-08-26T07:46:16.476Z,26.92
2022-08-26T07:48:46.223Z,27.13
2022-08-26T07:51:15.324Z,27.53
2022-08-26T07:53:44.285Z,27.45
2022-08-26T07:56:16.233Z,26.96
2022-08-26T07:58:48.992Z,27.33
2022-08-26T08:01:19.561Z,27.65
2022-08-26T08:03:48.053Z,27.91
2022-08-26T08:06:18.665Z,27.64
2022-08-26T08:08:47.601Z,27.78
2022-08-26T08:11:20.448Z,27.75
2022-08-26T08:13:52.419Z,27.88
2022-08-26T08:16:25.073Z,28.24
2022-08-26T08:18:54.428Z,28.32
2022-08-26T08:21:24.352Z,27.88
2022-08-26T08:23:53.606Z,27.75
2022-08-26T08:26:21.986Z,27.88
2022-08-26T08:28:52.150Z,28.08
2022-08-26T08:31:38.766Z,27.76
2022-08-26T08:34:09.033Z,28.22
2022-08-26T08:36:36.949Z,28.72
2022-08-26T08:39:04.841Z,29.09
2022-08-26T08:41:54.563Z,28.43
2022-08-26T08:46:59.683Z,29.45
2022-08-26T08:49:29.304Z,29.25
2022-08-26T08:52:02.782Z,30.25
2022-08-26T08:54:33.932Z,29.71
2022-08-26T08:57:11.160Z,29.85
2022-08-26T08:59:53.225Z,31.10
2022-08-26T09:02:29.300Z,31.46
2022-08-26T09:05:22.417Z,30.32
2022-08-26T09:07:54.579Z,30.95
2022-08-26T09:10:36.575Z,31.30
2022-08-26T09:13:07.939Z,31.10
2022-08-26T09:15:47.932Z,31.73
2022-08-26T09:18:28.947Z,31.40
2022-08-26T09:21:00.229Z,30.41
2022-08-26T09:23:28.173Z,30.96
2022-08-26T09:25:58.648Z,31.18
2022-08-26T09:28:29.171Z,31.60
2022-08-26T09:31:11.475Z,32.30
2022-08-26T09:33:41.480Z,31.73
2022-08-26T09:36:16.341Z,31.13
2022-08-26T09:38:44.825Z,31.75
2022-08-26T09:41:31.646Z,31.94
2022-08-26T09:44:18.950Z,32.74
2022-08-26T09:46:55.673Z,32.43
2022-08-26T09:49:35.775Z,32.65
2022-08-26T09:52:08.473Z,33.23
2022-08-26T09:54:39.005Z,32.74
2022-08-26T09:57:25.812Z,32.61
2022-08-26T09:59:54.066Z,33.59
2022-08-26T10:02:41.455Z,33.47
2022-08-26T10:05:19.058Z,34.29
2022-08-26T10:07:50.720Z,34.28
2022-08-26T10:10:24.019Z,33.82
2022-08-26T10:12:59.953Z,34.32
2022-08-26T10:15:29.081Z,34.98
2022-08-26T10:18:05.517Z,34.79
2022-08-26T10:20:37.080Z,35.12
2022-08-26T10:23:11.049Z,35.02
2022-08-26T10:25:46.489Z,34.24
2022-08-26T10:28:23.567Z,33.89
2022-08-26T10:30:57.179Z,33.12
2022-08-26T10:33:26.476Z,32.93
2022-08-26T10:35:58.419Z,32.95
2022-08-26T10:38:31.007Z,32.91
2022-08-26T10:41:10.410Z,32.16
2022-08-26T10:43:43.360Z,31.82
2022-08-26T10:46:17.208Z,32.23
2022-08-26T10:48:52.131Z,32.60
2022-08-26T10:51:26.557Z,32.69
2022-08-26T10:53:59.899Z,32.48
2022-08-26T10:56:43.047Z,32.10
2022-08-26T10:59:24.713Z,31.59
2022-08-26T11:02:06.381Z,32.00
2022-08-26T11:04:48.243Z,32.47
2022-08-26T11:07:38.062Z,32.40
2022-08-26T11:10:09.450Z,33.14
2022-08-26T11:12:58.881Z,34.23
2022-08-26T11:16:01.093Z,34.63
2022-08-26T11:18:48.611Z,34.92
2022-08-26T11:21:49.510Z,34.77
2022-08-26T11:25:11.394Z,34.17
2022-08-26T11:27:57.267Z,33.51
2022-08-26T11:30:56.913Z,33.31
2022-08-26T11:33:59.919Z,33.36
2022-08-26T11:36:59.745Z,32.65
2022-08-26T11:39:36.801Z,32.36
2022-08-26T11:42:29.456Z,33.20
2022-08-26T11:44:59.880Z,33.80
2022-08-26T11:47:32.872Z,34.06
2022-08-26T11:50:13.866Z,34.11
2022-08-26T11:52:52.013Z,34.25
2022-08-26T11:55:20.380Z,34.21
2022-08-26T11:57:54.793Z,34.00
2022-08-26T12:00:25.301Z,33.52
2022-08-26T12:02:55.574Z,34.16
2022-08-26T12:05:30.897Z,33.42
2022-08-26T12:08:07.334Z,32.94
2022-08-26T12:10:36.477Z,32.64
2022-08-26T12:13:07.198Z,32.82
2022-08-26T12:15:36.746Z,32.76
2022-08-26T12:18:29.206Z,33.11
2022-08-26T12:21:01.227Z,33.70
2022-08-26T12:23:41.115Z,33.49
2022-08-26T12:26:12.622Z,33.66
2022-08-26T12:28:45.181Z,33.06
2022-08-26T12:31:13.174Z,34.20
2022-08-26T12:33:45.556Z,34.75
2022-08-26T12:36:13.992Z,32.70
2022-08-26T12:38:43.339Z,34.22
2022-08-26T12:41:11.175Z,34.36
2022-08-26T12:43:44.441Z,34.36
2022-08-26T12:46:15.484Z,34.41
2022-08-26T12:48:45.713Z,35.30
2022-08-26T12:51:25.165Z,35.34
2022-08-26T12:53:55.326Z,35.72
2022-08-26T12:56:28.573Z,35.51
2022-08-26T12:59:06.005Z,35.18
2022-08-26T13:01:40.218Z,35.94
2022-08-26T13:04:08.612Z,35.62
2022-08-26T13:06:36.508Z,34.80
2022-08-26T13:09:26.915Z,34.24
2022-08-26T13:12:00.309Z,33.29
2022-08-26T13:14:31.510Z,32.97
2022-08-26T13:16:59.730Z,32.30
2022-08-26T13:19:28.104Z,32.24
2022-08-26T13:21:58.404Z,31.96
2022-08-26T13:24:32.235Z,30.64
2022-08-26T13:27:00.722Z,30.47
2022-08-26T13:29:29.814Z,30.93
2022-08-26T13:31:59.039Z,30.92
2022-08-26T13:34:28.248Z,30.33
2022-08-26T13:36:58.159Z,30.09
2022-08-26T13:39:27.726Z,29.43
2022-08-26T13:41:55.968Z,29.58
2022-08-26T13:44:23.871Z,29.48
2022-08-26T13:46:52.277Z,29.82
2022-08-26T13:49:20.139Z,28.88
2022-08-26T13:51:48.004Z,29.09
2022-08-26T13:54:16.220Z,29.30
2022-08-26T13:56:46.049Z,29.13
2022-08-26T13:59:13.972Z,28.75
2022-08-26T14:01:42.154Z,29.20
2022-08-26T14:04:10.240Z,29.37
2022-08-26T14:06:38.448Z,29.10
2022-08-26T14:09:06.388Z,29.47
2022-08-26T14:11:41.235Z,29.64
2022-08-26T14:14:20.183Z,29.55
2022-08-26T14:16:58.633Z,29.63
2022-08-26T14:19:27.272Z,30.13
2022-08-26T14:21:55.328Z,30.10
2022-08-26T14:24:23.679Z,29.82
2022-08-26T14:26:51.582Z,30.05
2022-08-26T14:29:20.954Z,29.88
2022-08-26T14:31:49.179Z,29.95
2022-08-26T14:34:17.147Z,29.99
2022-08-26T14:36:45.022Z,30.07
2022-08-26T14:39:14.712Z,29.62
2022-08-26T14:41:54.362Z,30.29
2022-08-26T14:44:28.583Z,30.29
2022-08-26T14:46:56.863Z,29.39
2022-08-26T14:49:27.234Z,28.13
2022-08-26T14:51:56.393Z,28.01
2022-08-26T14:54:23.439Z,29.21
2022-08-26T14:56:54.881Z,28.69
2022-08-26T14:59:27.344Z,29.22
2022-08-26T15:01:56.303Z,28.35
2022-08-26T15:04:25.685Z,28.50
2022-08-26T15:06:54.299Z,28.20
2022-08-26T15:09:22.654Z,28.47
2022-08-26T15:11:50.701Z,28.75
2022-08-26T15:14:20.092Z,28.81
2022-08-26T15:16:50.927Z,28.96
2022-08-26T15:19:20.763Z,28.83
2022-08-26T15:21:49.081Z,28.73
2022-08-26T15:24:19.166Z,28.34
2022-08-26T15:26:47.344Z,28.16
2022-08-26T15:29:16.369Z,27.92
2022-08-26T15:31:44.477Z,27.71
2022-08-26T15:34:16.803Z,27.40
2022-08-26T15:36:46.743Z,27.83
2022-08-26T15:39:15.584Z,27.56
2022-08-26T15:41:43.791Z,27.45
2022-08-26T15:44:13.740Z,26.55
2022-08-26T15:46:42.112Z,26.79
2022-08-26T15:49:17.535Z,26.51
2022-08-26T15:51:50.315Z,26.58
2022-08-26T15:54:21.524Z,27.02
2022-08-26T15:56:52.428Z,26.83
2022-08-26T15:59:22.670Z,26.45
2022-08-26T16:01:50.950Z,26.51
2022-08-26T16:04:19.288Z,26.04
2022-08-26T16:06:50.307Z,26.24
2022-08-26T16:09:18.906Z,26.55
2022-08-26T16:11:46.825Z,26.32
2022-08-26T16:14:14.829Z,25.74
2022-08-26T16:16:42.727Z,25.75
2022-08-26T16:19:11.553Z,25.94
2022-08-26T16:21:41.512Z,25.67
2022-08-26T16:24:11.655Z,25.29
2022-08-26T16:26:41.482Z,25.06
2022-08-26T16:29:12.226Z,25.50
2022-08-26T16:31:40.424Z,24.93
2022-08-26T16:34:09.568Z,25.32
2022-08-26T16:36:39.184Z,25.40
2022-08-26T16:39:08.642Z,24.93
2022-08-26T16:41:37.915Z,25.01
2022-08-26T16:44:06.936Z,25.03
2022-08-26T16:46:35.541Z,25.47
2022-08-26T16:49:04.666Z,25.53
2022-08-26T16:51:38.180Z,25.56
2022-08-26T16:54:08.288Z,25.69
2022-08-26T16:56:38.650Z,26.11
2022-08-26T16:59:09.422Z,26.12
2022-08-26T17:01:37.473Z,26.09
2022-08-26T17:04:05.450Z,26.17
2022-08-26T17:06:34.005Z,26.05
2022-08-26T17:09:01.865Z,25.75
2022-08-26T17:11:29.700Z,25.81
2022-08-26T17:13:59.223Z,25.81
2022-08-26T17:16:27.757Z,25.55
2022-08-26T17:18:56.850Z,25.21
2022-08-26T17:21:25.311Z,25.46
2022-08-26T17:23:53.540Z,25.53
2022-08-26T17:26:21.620Z,25.25
2022-08-26T17:28:50.057Z,25.41
2022-08-26T17:31:19.895Z,25.58
2022-08-26T17:33:53.859Z,25.35
2022-08-26T17:36:28.161Z,25.12
2022-08-26T17:38:57.280Z,25.42
2022-08-26T17:41:26.371Z,24.51
2022-08-26T17:43:54.436Z,24.60
2022-08-26T17:46:23.903Z,24.40
2022-08-26T17:48:52.048Z,24.52
2022-08-26T17:51:20.814Z,24.35
2022-08-26T17:53:49.718Z,24.23
2022-08-26T17:56:20.554Z,23.87
2022-08-26T17:58:51.827Z,24.18
2022-08-26T18:01:20.153Z,24.00
2022-08-26T18:03:50.236Z,23.83
2022-08-26T18:06:18.205Z,23.73
2022-08-26T18:08:46.403Z,24.12
2022-08-26T18:11:16.504Z,24.26
2022-08-26T18:13:46.051Z,24.23
2022-08-26T18:16:17.283Z,24.19
2022-08-26T18:18:45.427Z,24.50
2022-08-26T18:21:17.700Z,24.60
2022-08-26T18:23:46.785Z,24.44
2022-08-26T18:26:18.120Z,23.98
2022-08-26T18:28:46.636Z,23.49
2022-08-26T18:31:15.454Z,24.00
2022-08-26T18:33:45.019Z,23.87
2022-08-26T18:36:19.476Z,23.63
2022-08-26T18:38:50.439Z,23.82
2022-08-26T18:41:20.860Z,23.48
2022-08-26T18:43:51.253Z,22.73
2022-08-26T18:46:22.541Z,22.70
2022-08-26T18:48:51.311Z,22.41
2022-08-26T18:51:24.152Z,22.09
2022-08-26T18:53:52.625Z,21.83
2022-08-26T18:56:21.069Z,21.66
2022-08-26T18:58:49.445Z,21.48
2022-08-26T19:01:18.875Z,21.39
2022-08-26T19:03:47.695Z,21.46
2022-08-26T19:06:16.421Z,21.08
2022-08-26T19:08:46.261Z,21.08
2022-08-26T19:11:31.985Z,20.59
2022-08-26T19:14:01.314Z,20.81
2022-08-26T19:16:30.446Z,20.71
2022-08-26T19:19:00.601Z,20.69
2022-08-26T19:21:29.720Z,20.92
2022-08-26T19:24:00.030Z,20.76
2022-08-26T19:26:28.354Z,20.88
2022-08-26T19:28:57.277Z,21.04
2022-08-26T19:31:25.324Z,21.25
2022-08-26T19:33:53.617Z,21.05
2022-08-26T19:36:24.835Z,21.19
2022-08-26T19:38:53.599Z,21.13
2022-08-26T19:41:31.669Z,20.89
2022-08-26T19:44:08.163Z,20.68
2022-08-26T19:46:40.094Z,20.53
2022-08-26T19:49:08.310Z,20.24
2022-08-26T19:51:37.539Z,20.24
2022-08-26T19:54:06.319Z,20.16
2022-08-26T19:56:36.522Z,20.28
2022-08-26T19:59:04.524Z,19.92
2022-08-26T20:01:32.604Z,20.13
2022-08-26T20:04:00.491Z,20.31
2022-08-26T20:06:28.368Z,20.29
2022-08-26T20:08:56.472Z,20.34
2022-08-26T20:11:25.304Z,20.16
2022-08-26T20:13:55.216Z,20.26
2022-08-26T20:16:23.230Z,20.22
2022-08-26T20:19:08.562Z,20.28
2022-08-26T20:21:39.362Z,20.31
2022-08-26T20:24:10.511Z,19.92
2022-08-26T20:26:40.607Z,19.74
2022-08-26T20:29:11.657Z,19.86
2022-08-26T20:31:40.320Z,20.04
2022-08-26T20:34:08.454Z,19.85
2022-08-26T20:36:38.191Z,19.87
2022-08-26T20:39:06.581Z,19.75
2022-08-26T20:41:34.533Z,19.45
2022-08-26T20:44:03.062Z,19.63
2022-08-26T20:46:34.624Z,19.54
2022-08-26T20:49:02.905Z,19.70
2022-08-26T20:51:34.782Z,19.55
2022-08-26T20:54:02.635Z,19.54
2022-08-26T20:56:30.448Z,19.73
2022-08-26T20:59:00.945Z,19.87
2022-08-26T21:01:34.370Z,19.59
2022-08-26T21:04:06.176Z,19.80
2022-08-26T21:06:35.182Z,19.77
2022-08-26T21:09:05.005Z,19.72
2022-08-26T21:11:33.167Z,19.65
2022-08-26T21:14:06.797Z,19.42
2022-08-26T21:16:44.229Z,19.68
2022-08-26T21:19:15.496Z,19.52
2022-08-26T21:21:44.432Z,19.54
2022-08-26T21:24:13.082Z,19.60
2022-08-26T21:26:41.212Z,19.52
2022-08-26T21:29:10.477Z,19.72
2022-08-26T21:31:44.929Z,19.57
2022-08-26T21:34:15.705Z,19.46
2022-08-26T21:36:43.693Z,19.53
2022-08-26T21:39:12.418Z,19.58
2022-08-26T21:41:40.718Z,19.58
2022-08-26T21:44:09.450Z,19.38
2022-08-26T21:46:37.652Z,19.52
2022-08-26T21:49:10.898Z,19.49
2022-08-26T21:51:42.839Z,19.42
2022-08-26T21:54:11.676Z,19.44
2022-08-26T21:56:42.064Z,19.50
2022-08-26T21:59:10.677Z,19.61
2022-08-26T22:01:38.849Z,19.57
2022-08-26T22:04:08.994Z,19.46
2022-08-26T22:06:43.869Z,19.49
2022-08-26T22:09:13.221Z,19.67
2022-08-26T22:11:42.017Z,19.67
2022-08-26T22:14:10.349Z,19.66
2022-08-26T22:16:38.287Z,19.82
2022-08-26T22:19:06.358Z,19.95
2022-08-26T22:21:35.711Z,19.95
2022-08-26T22:24:07.073Z,19.70
2022-08-26T22:26:35.670Z,19.93
2022-08-26T22:29:04.775Z,20.05
2022-08-26T22:31:38.035Z,20.16
2022-08-26T22:34:08.543Z,19.95
2022-08-26T22:36:39.812Z,19.99
2022-08-26T22:39:14.517Z,20.11
2022-08-26T22:41:43.108Z,20.21
2022-08-26T22:44:11.725Z,20.12
2022-08-26T22:46:40.955Z,20.22
2022-08-26T22:49:09.494Z,20.28
2022-08-26T22:51:37.398Z,20.39
2022-08-26T22:54:06.425Z,20.24
2022-08-26T22:56:36.634Z,20.08
2022-08-26T22:59:05.203Z,20.12
2022-08-26T23:01:36.187Z,20.01
2022-08-26T23:04:05.338Z,19.91
2022-08-26T23:06:33.339Z,19.95
2022-08-26T23:09:01.198Z,19.89
2022-08-26T23:11:29.116Z,19.94
2022-08-26T23:13:58.389Z,19.94
2022-08-26T23:16:29.467Z,19.91
2022-08-26T23:19:06.838Z,20.01
2022-08-26T23:21:35.185Z,19.64
2022-08-26T23:24:03.212Z,19.74
2022-08-26T23:26:31.892Z,19.48
2022-08-26T23:29:01.434Z,19.69
2022-08-26T23:31:29.457Z,19.65
2022-08-26T23:34:14.923Z,19.91
2022-08-26T23:36:43.348Z,19.69
2022-08-26T23:39:14.134Z,19.44
2022-08-26T23:41:42.215Z,19.41
2022-08-26T23:44:12.324Z,19.32
2022-08-26T23:46:40.318Z,19.52
2022-08-26T23:49:08.266Z,19.59
2022-08-26T23:51:54.096Z,19.50
2022-08-26T23:54:22.222Z,19.50
2022-08-26T23:56:50.373Z,19.42
2022-08-26T23:59:19.651Z,19.78
